createdAt,value
2023-03-23T15:58:29.457Z,86.20
2023-03-23T16:00:59.061Z,85.20
2023-03-23T16:03:29.904Z,85.20
2023-03-23T16:05:59.798Z,84.80
2023-03-23T16:08:27.787Z,85.00
2023-03-23T16:10:55.685Z,84.70
2023-03-23T16:13:24.916Z,84.40
2023-03-23T16:15:52.783Z,82.80
2023-03-23T16:18:22.419Z,82.90
2023-03-23T16:20:50.942Z,83.30
2023-03-23T16:23:19.278Z,83.20
2023-03-23T16:25:47.210Z,81.90
2023-03-23T16:28:15.829Z,81.70
2023-03-23T16:30:45.758Z,81.60
2023-03-23T16:33:13.954Z,81.00
2023-03-23T16:35:43.530Z,81.10
2023-03-23T16:38:14.440Z,81.00
2023-03-23T16:40:42.617Z,80.90
2023-03-23T16:43:11.826Z,81.20
2023-03-23T16:45:43.787Z,82.10
2023-03-23T16:48:15.876Z,82.30
2023-03-23T16:50:44.828Z,82.40
2023-03-23T16:53:13.175Z,82.10
2023-03-23T16:55:42.052Z,82.30
2023-03-23T16:58:16.878Z,82.50
2023-03-23T17:00:46.868Z,82.80
2023-03-23T17:03:16.748Z,82.70
2023-03-23T17:05:46.254Z,83.50
2023-03-23T17:08:14.414Z,83.60
2023-03-23T17:10:43.687Z,83.80
2023-03-23T17:13:12.228Z,84.10
2023-03-23T17:15:43.780Z,84.50
2023-03-23T17:18:15.918Z,84.60
2023-03-23T17:20:44.306Z,84.60
2023-03-23T17:23:12.442Z,84.80
2023-03-23T17:25:40.566Z,84.70
2023-03-23T17:28:08.499Z,84.70
2023-03-23T17:30:36.850Z,84.70
2023-03-23T17:33:04.994Z,84.70
2023-03-23T17:35:34.181Z,85.10
2023-03-23T17:38:02.269Z,84.90
2023-03-23T17:40:30.255Z,84.80
2023-03-23T17:42:58.206Z,84.80
2023-03-23T17:45:26.126Z,84.80
2023-03-23T17:47:54.008Z,85.10
2023-03-23T17:50:21.870Z,85.30
2023-03-23T17:52:51.147Z,85.40
2023-03-23T17:55:19.010Z,85.60
2023-03-23T17:57:46.904Z,85.60
2023-03-23T18:00:15.691Z,85.70
2023-03-23T18:02:43.608Z,85.70
2023-03-23T18:05:11.722Z,85.80
2023-03-23T18:07:39.767Z,86.20
2023-03-23T18:10:12.553Z,86.30
2023-03-23T18:12:40.923Z,86.60
2023-03-23T18:15:10.035Z,86.70
2023-03-23T18:17:38.047Z,87.00
2023-03-23T18:20:09.175Z,87.00
2023-03-23T18:22:37.080Z,87.00
2023-03-23T18:25:05.363Z,86.90
2023-03-23T18:27:34.910Z,86.90
2023-03-23T18:30:03.252Z,87.00
2023-03-23T18:32:31.419Z,86.50
2023-03-23T18:34:59.446Z,86.70
2023-03-23T18:37:27.647Z,86.70
2023-03-23T18:39:56.189Z,86.60
2023-03-23T18:42:24.173Z,86.50
2023-03-23T18:44:55.193Z,86.50
2023-03-23T18:47:23.161Z,86.40
2023-03-23T18:49:54.974Z,86.30
2023-03-23T18:52:26.068Z,86.10
2023-03-23T18:54:54.770Z,86.00
2023-03-23T18:57:23.451Z,85.60
2023-03-23T18:59:52.830Z,85.30
2023-03-23T19:02:21.704Z,85.10
2023-03-23T19:04:50.866Z,84.70
2023-03-23T19:07:19.746Z,84.60
2023-03-23T19:09:50.569Z,84.60
2023-03-23T19:12:18.586Z,84.20
2023-03-23T19:14:46.508Z,84.20
2023-03-23T19:17:16.843Z,84.30
2023-03-23T19:19:45.010Z,84.20
2023-03-23T19:22:13.353Z,84.20
2023-03-23T19:24:41.188Z,84.10
2023-03-23T19:27:09.435Z,84.10
2023-03-23T19:29:37.284Z,84.30
2023-03-23T19:32:08.388Z,84.30
2023-03-23T19:34:38.734Z,84.10
2023-03-23T19:37:10.836Z,84.00
2023-03-23T19:39:41.871Z,83.90
2023-03-23T19:42:11.066Z,84.00
2023-03-23T19:44:38.961Z,83.80
2023-03-23T19:47:07.190Z,83.80
2023-03-23T19:49:36.862Z,83.40
2023-03-23T19:52:10.527Z,83.50
2023-03-23T19:54:41.020Z,83.30
2023-03-23T19:57:09.839Z,83.10
2023-03-23T19:59:38.203Z,83.00
2023-03-23T20:02:06.932Z,82.60
2023-03-23T20:04:37.532Z,82.50
2023-03-23T20:07:07.721Z,82.30
2023-03-23T20:09:35.758Z,81.80
2023-03-23T20:12:04.985Z,81.90
2023-03-23T20:14:33.082Z,81.50
2023-03-23T20:17:01.586Z,81.50
2023-03-23T20:19:29.411Z,81.20
2023-03-23T20:21:58.861Z,80.90
2023-03-23T20:24:26.744Z,80.90
2023-03-23T20:29:23.833Z,80.60
2023-03-23T20:31:52.110Z,80.70
2023-03-23T20:34:28.929Z,80.50
2023-03-23T20:36:59.499Z,80.50
2023-03-23T20:39:30.559Z,80.10
2023-03-23T20:42:01.840Z,80.20
2023-03-23T20:44:32.906Z,80.20
2023-03-23T20:47:02.562Z,79.90
2023-03-23T20:49:31.894Z,79.50
2023-03-23T20:52:01.764Z,79.70
2023-03-23T20:54:30.144Z,79.30
2023-03-23T20:56:58.679Z,79.10
2023-03-23T20:59:27.084Z,78.80
2023-03-23T21:01:55.106Z,78.90
2023-03-23T21:04:27.254Z,78.30
2023-03-23T21:06:56.120Z,77.90
2023-03-23T21:09:26.227Z,77.60
2023-03-23T21:11:54.599Z,77.70
2023-03-23T21:14:22.533Z,77.50
2023-03-23T21:16:50.397Z,77.20
2023-03-23T21:19:19.268Z,76.80
2023-03-23T21:21:55.301Z,77.30
2023-03-23T21:24:28.009Z,77.50
2023-03-23T21:26:57.560Z,77.50
2023-03-23T21:29:25.436Z,77.40
2023-03-23T21:32:05.283Z,77.30
2023-03-23T21:34:36.591Z,77.50
2023-03-23T21:37:04.951Z,77.80
2023-03-23T21:39:34.690Z,78.40
2023-03-23T21:42:05.575Z,77.90
2023-03-23T21:44:35.274Z,78.50
2023-03-23T21:47:03.967Z,79.10
2023-03-23T21:49:31.873Z,79.30
2023-03-23T21:51:59.831Z,79.60
2023-03-23T21:54:29.966Z,80.20
2023-03-23T21:57:00.330Z,80.70
2023-03-23T21:59:28.863Z,80.80
2023-03-23T22:01:58.507Z,81.00
2023-03-23T22:04:27.777Z,81.40
2023-03-23T22:06:56.087Z,81.70
2023-03-23T22:09:24.108Z,81.90
2023-03-23T22:11:52.036Z,82.20
2023-03-23T22:14:21.437Z,82.60
2023-03-23T22:16:49.391Z,83.00
2023-03-23T22:19:17.544Z,83.20
2023-03-23T22:21:45.493Z,83.60
2023-03-23T22:24:13.843Z,84.10
2023-03-23T22:26:41.879Z,84.60
2023-03-23T22:29:11.186Z,84.70
2023-03-23T22:31:40.854Z,85.10
2023-03-23T22:34:08.881Z,85.10
2023-03-23T22:36:36.863Z,85.00
2023-03-23T22:39:04.962Z,85.30
2023-03-23T22:41:35.456Z,85.40
2023-03-23T22:44:03.660Z,85.40
2023-03-23T22:46:31.947Z,85.70
2023-03-23T22:49:01.262Z,85.80
2023-03-23T22:51:29.238Z,86.10
2023-03-23T22:53:57.258Z,86.10
2023-03-23T22:56:25.641Z,86.20
2023-03-23T22:58:54.498Z,86.30
2023-03-23T23:01:24.061Z,86.40
2023-03-23T23:03:52.255Z,86.60
2023-03-23T23:06:21.764Z,86.60
2023-03-23T23:08:52.468Z,87.10
2023-03-23T23:11:22.621Z,86.90
2023-03-23T23:13:51.035Z,87.10
2023-03-23T23:16:22.046Z,87.40
2023-03-23T23:18:50.082Z,87.30
2023-03-23T23:21:20.484Z,87.50
2023-03-23T23:23:51.654Z,87.60
2023-03-23T23:26:20.347Z,87.60
2023-03-23T23:28:49.430Z,87.70
2023-03-23T23:31:22.560Z,87.60
2023-03-23T23:33:50.956Z,87.90
2023-03-23T23:36:21.069Z,87.90
2023-03-23T23:38:50.629Z,87.90
2023-03-23T23:41:18.590Z,87.80
2023-03-23T23:43:46.592Z,88.10
2023-03-23T23:46:14.525Z,88.10
2023-03-23T23:48:44.775Z,88.10
2023-03-23T23:51:15.212Z,88.30
2023-03-23T23:53:44.070Z,88.30
2023-03-23T23:56:14.428Z,88.40
2023-03-23T23:58:42.843Z,88.50
